sensor_id;sensor_type;location;lat;lon;timestamp;P1;durP1;ratioP1;P2;durP2;ratioP2
73172;SDS011;61388;54.962;73.394;2022-09-09T04:05:53;153.55;;;143.95;;
73172;SDS011;61388;54.962;73.394;2022-09-09T04:11:29;184.67;;;173.30;;
73172;SDS011;61388;54.962;73.394;2022-09-09T04:14:03;274.15;;;256.38;;
73172;SDS011;61388;54.962;73.394;2022-09-09T04:16:54;272.90;;;255.05;;
73172;SDS011;61388;54.962;73.394;2022-09-09T04:23:50;347.63;;;323.63;;
73172;SDS011;61388;54.962;73.394;2022-09-09T04:30:43;442.25;;;410.98;;
73172;SDS011;61388;54.962;73.394;2022-09-09T04:33:12;469.08;;;435.50;;
73172;SDS011;61388;54.962;73.394;2022-09-09T04:35:49;432.70;;;401.23;;
73172;SDS011;61388;54.962;73.394;2022-09-09T04:38:27;424.02;;;393.95;;
73172;SDS011;61388;54.962;73.394;2022-09-09T04:41:03;442.80;;;410.53;;
73172;SDS011;61388;54.962;73.394;2022-09-09T04:43:35;373.13;;;347.30;;
73172;SDS011;61388;54.962;73.394;2022-09-09T04:46:14;394.58;;;366.73;;
73172;SDS011;61388;54.962;73.394;2022-09-09T04:48:49;369.50;;;343.52;;
73172;SDS011;61388;54.962;73.394;2022-09-09T04:55:36;341.10;;;317.37;;
73172;SDS011;61388;54.962;73.394;2022-09-09T04:58:14;365.98;;;339.25;;
73172;SDS011;61388;54.962;73.394;2022-09-09T05:00:40;362.98;;;337.83;;
73172;SDS011;61388;54.962;73.394;2022-09-09T05:03:12;393.85;;;365.42;;
73172;SDS011;61388;54.962;73.394;2022-09-09T05:05:38;380.08;;;352.88;;
73172;SDS011;61388;54.962;73.394;2022-09-09T05:08:05;310.70;;;289.13;;
73172;SDS011;61388;54.962;73.394;2022-09-09T05:10:36;351.38;;;326.40;;
73172;SDS011;61388;54.962;73.394;2022-09-09T05:13:03;320.48;;;298.05;;
73172;SDS011;61388;54.962;73.394;2022-09-09T05:15:30;276.10;;;256.65;;
73172;SDS011;61388;54.962;73.394;2022-09-09T05:17:58;130.95;;;122.50;;
73172;SDS011;61388;54.962;73.394;2022-09-09T05:20:24;84.93;;;79.60;;
73172;SDS011;61388;54.962;73.394;2022-09-09T05:22:54;48.65;;;45.65;;
73172;SDS011;61388;54.962;73.394;2022-09-09T05:25:21;30.77;;;28.55;;
73172;SDS011;61388;54.962;73.394;2022-09-09T05:27:48;13.57;;;12.40;;
73172;SDS011;61388;54.962;73.394;2022-09-09T05:30:15;8.02;;;6.18;;
73172;SDS011;61388;54.962;73.394;2022-09-09T05:32:44;7.63;;;3.47;;
73172;SDS011;61388;54.962;73.394;2022-09-09T05:35:17;10.30;;;3.90;;
73172;SDS011;61388;54.962;73.394;2022-09-09T06:00:01;6.78;;;1.50;;
73172;SDS011;61388;54.962;73.394;2022-09-09T06:18:27;11.07;;;2.63;;
73172;SDS011;61388;54.962;73.394;2022-09-09T06:20:57;6.90;;;1.70;;
73172;SDS011;61388;54.962;73.394;2022-09-09T06:23:30;6.63;;;2.17;;
73172;SDS011;61388;54.962;73.394;2022-09-09T06:29:23;8.80;;;2.00;;
73172;SDS011;61388;54.962;73.394;2022-09-09T06:31:55;5.70;;;1.95;;
73172;SDS011;61388;54.962;73.394;2022-09-09T06:34:25;6.15;;;2.30;;
73172;SDS011;61388;54.962;73.394;2022-09-09T06:36:56;4.03;;;1.90;;
73172;SDS011;61388;54.962;73.394;2022-09-09T06:39:24;4.87;;;1.70;;
73172;SDS011;61388;54.962;73.394;2022-09-09T06:42:01;4.82;;;1.85;;
73172;SDS011;61388;54.962;73.394;2022-09-09T06:44:48;4.13;;;1.92;;
73172;SDS011;61388;54.962;73.394;2022-09-09T06:47:27;5.38;;;2.10;;
73172;SDS011;61388;54.962;73.394;2022-09-09T06:49:56;10.02;;;2.05;;
73172;SDS011;61388;54.962;73.394;2022-09-09T06:52:24;8.73;;;2.50;;
73172;SDS011;61388;54.962;73.394;2022-09-09T07:03:14;14.18;;;2.80;;
73172;SDS011;61388;54.962;73.394;2022-09-09T07:05:53;8.80;;;2.90;;
73172;SDS011;61388;54.962;73.394;2022-09-09T07:09:06;11.17;;;1.80;;
73172;SDS011;61388;54.962;73.394;2022-09-09T07:11:41;4.68;;;2.20;;
73172;SDS011;61388;54.962;73.394;2022-09-09T07:14:14;6.88;;;1.88;;
73172;SDS011;61388;54.962;73.394;2022-09-09T07:16:53;7.65;;;2.03;;
73172;SDS011;61388;54.962;73.394;2022-09-09T07:19:19;4.13;;;1.73;;
73172;SDS011;61388;54.962;73.394;2022-09-09T07:29:12;9.32;;;2.17;;
73172;SDS011;61388;54.962;73.394;2022-09-09T07:31:41;4.78;;;2.17;;
73172;SDS011;61388;54.962;73.394;2022-09-09T07:34:12;8.50;;;2.05;;
73172;SDS011;61388;54.962;73.394;2022-09-09T07:36:39;5.90;;;2.07;;
73172;SDS011;61388;54.962;73.394;2022-09-09T07:39:13;12.63;;;3.78;;
73172;SDS011;61388;54.962;73.394;2022-09-09T07:45:03;6.78;;;2.25;;
73172;SDS011;61388;54.962;73.394;2022-09-09T07:47:41;9.48;;;2.00;;
73172;SDS011;61388;54.962;73.394;2022-09-09T07:50:14;6.97;;;1.80;;
73172;SDS011;61388;54.962;73.394;2022-09-09T07:57:54;12.70;;;2.10;;
73172;SDS011;61388;54.962;73.394;2022-09-09T08:09:08;5.13;;;1.57;;
73172;SDS011;61388;54.962;73.394;2022-09-09T08:11:46;9.93;;;1.48;;
73172;SDS011;61388;54.962;73.394;2022-09-09T10:42:30;14.02;;;2.97;;
73172;SDS011;61388;54.962;73.394;2022-09-09T11:15:26;10.23;;;3.37;;
73172;SDS011;61388;54.962;73.394;2022-09-09T11:17:55;12.85;;;3.10;;
73172;SDS011;61388;54.962;73.394;2022-09-09T11:20:22;9.18;;;3.50;;
73172;SDS011;61388;54.962;73.394;2022-09-09T11:23:05;24.25;;;8.73;;
73172;SDS011;61388;54.962;73.394;2022-09-09T11:25:36;15.48;;;6.45;;
73172;SDS011;61388;54.962;73.394;2022-09-09T11:31:19;9.68;;;3.30;;
73172;SDS011;61388;54.962;73.394;2022-09-09T11:38:50;9.07;;;2.70;;
73172;SDS011;61388;54.962;73.394;2022-09-09T11:41:20;11.10;;;2.90;;
73172;SDS011;61388;54.962;73.394;2022-09-09T11:43:49;32.80;;;4.25;;
73172;SDS011;61388;54.962;73.394;2022-09-09T11:46:20;19.77;;;4.72;;
73172;SDS011;61388;54.962;73.394;2022-09-09T11:51:33;9.90;;;3.10;;
73172;SDS011;61388;54.962;73.394;2022-09-09T11:56:53;12.20;;;3.83;;
73172;SDS011;61388;54.962;73.394;2022-09-09T11:59:20;10.40;;;3.00;;
73172;SDS011;61388;54.962;73.394;2022-09-09T12:01:53;6.90;;;2.55;;
73172;SDS011;61388;54.962;73.394;2022-09-09T12:09:49;8.23;;;3.30;;
73172;SDS011;61388;54.962;73.394;2022-09-09T12:12:28;8.00;;;3.00;;
73172;SDS011;61388;54.962;73.394;2022-09-09T12:19:47;8.55;;;3.10;;
73172;SDS011;61388;54.962;73.394;2022-09-09T12:22:25;6.93;;;3.20;;
73172;SDS011;61388;54.962;73.394;2022-09-09T12:25:06;12.13;;;3.40;;
73172;SDS011;61388;54.962;73.394;2022-09-09T12:30:23;7.67;;;2.57;;
73172;SDS011;61388;54.962;73.394;2022-09-09T12:33:08;7.18;;;2.53;;
73172;SDS011;61388;54.962;73.394;2022-09-09T12:35:36;7.07;;;2.60;;
73172;SDS011;61388;54.962;73.394;2022-09-09T12:38:04;18.25;;;4.95;;
73172;SDS011;61388;54.962;73.394;2022-09-09T12:40:33;7.43;;;3.20;;
73172;SDS011;61388;54.962;73.394;2022-09-09T12:43:01;18.30;;;3.37;;
73172;SDS011;61388;54.962;73.394;2022-09-09T12:45:35;8.00;;;2.72;;
73172;SDS011;61388;54.962;73.394;2022-09-09T12:48:07;9.30;;;3.70;;
73172;SDS011;61388;54.962;73.394;2022-09-09T12:50:48;8.00;;;3.10;;
73172;SDS011;61388;54.962;73.394;2022-09-09T12:53:21;8.60;;;2.78;;
73172;SDS011;61388;54.962;73.394;2022-09-09T12:55:52;6.63;;;3.20;;
73172;SDS011;61388;54.962;73.394;2022-09-09T12:58:18;12.38;;;4.93;;
73172;SDS011;61388;54.962;73.394;2022-09-09T13:00:48;9.57;;;3.83;;
73172;SDS011;61388;54.962;73.394;2022-09-09T13:03:16;13.95;;;4.18;;
73172;SDS011;61388;54.962;73.394;2022-09-09T13:05:43;25.25;;;12.60;;
73172;SDS011;61388;54.962;73.394;2022-09-09T13:08:10;14.30;;;3.77;;
73172;SDS011;61388;54.962;73.394;2022-09-09T13:10:43;11.30;;;4.60;;
73172;SDS011;61388;54.962;73.394;2022-09-09T13:13:22;13.15;;;4.07;;
73172;SDS011;61388;54.962;73.394;2022-09-09T13:15:53;11.05;;;5.15;;
73172;SDS011;61388;54.962;73.394;2022-09-09T13:18:25;19.25;;;6.75;;
73172;SDS011;61388;54.962;73.394;2022-09-09T13:21:02;17.15;;;5.85;;
73172;SDS011;61388;54.962;73.394;2022-09-09T13:23:32;18.05;;;6.22;;
73172;SDS011;61388;54.962;73.394;2022-09-09T13:26:00;15.18;;;6.32;;
73172;SDS011;61388;54.962;73.394;2022-09-09T13:28:31;15.80;;;5.30;;
73172;SDS011;61388;54.962;73.394;2022-09-09T13:30:59;23.38;;;9.35;;
73172;SDS011;61388;54.962;73.394;2022-09-09T13:33:29;15.70;;;6.20;;
73172;SDS011;61388;54.962;73.394;2022-09-09T13:35:56;14.93;;;5.70;;
73172;SDS011;61388;54.962;73.394;2022-09-09T13:38:25;15.32;;;6.45;;
73172;SDS011;61388;54.962;73.394;2022-09-09T13:40:54;14.00;;;6.57;;
73172;SDS011;61388;54.962;73.394;2022-09-09T13:43:21;12.10;;;5.90;;
73172;SDS011;61388;54.962;73.394;2022-09-09T13:45:59;10.60;;;5.80;;
73172;SDS011;61388;54.962;73.394;2022-09-09T13:48:25;17.95;;;7.88;;
73172;SDS011;61388;54.962;73.394;2022-09-09T13:50:59;23.30;;;7.72;;
73172;SDS011;61388;54.962;73.394;2022-09-09T13:53:25;17.70;;;7.32;;
73172;SDS011;61388;54.962;73.394;2022-09-09T13:55:57;19.58;;;7.88;;
73172;SDS011;61388;54.962;73.394;2022-09-09T13:58:23;20.25;;;9.13;;
73172;SDS011;61388;54.962;73.394;2022-09-09T14:00:51;22.00;;;9.75;;
73172;SDS011;61388;54.962;73.394;2022-09-09T14:03:17;20.83;;;9.45;;
73172;SDS011;61388;54.962;73.394;2022-09-09T14:05:44;28.73;;;10.40;;
73172;SDS011;61388;54.962;73.394;2022-09-09T14:08:15;20.47;;;9.07;;
73172;SDS011;61388;54.962;73.394;2022-09-09T14:10:41;30.02;;;11.40;;
73172;SDS011;61388;54.962;73.394;2022-09-09T14:13:07;23.75;;;11.05;;
73172;SDS011;61388;54.962;73.394;2022-09-09T14:15:33;26.40;;;11.82;;
73172;SDS011;61388;54.962;73.394;2022-09-09T14:18:02;22.23;;;11.82;;
73172;SDS011;61388;54.962;73.394;2022-09-09T14:20:38;28.97;;;9.73;;
73172;SDS011;61388;54.962;73.394;2022-09-09T14:23:12;26.92;;;11.13;;
73172;SDS011;61388;54.962;73.394;2022-09-09T14:25:42;29.55;;;11.13;;
73172;SDS011;61388;54.962;73.394;2022-09-09T14:28:11;25.48;;;10.38;;
73172;SDS011;61388;54.962;73.394;2022-09-09T14:30:39;25.13;;;10.55;;
73172;SDS011;61388;54.962;73.394;2022-09-09T14:33:15;19.83;;;9.27;;
73172;SDS011;61388;54.962;73.394;2022-09-09T14:35:41;29.88;;;9.88;;
73172;SDS011;61388;54.962;73.394;2022-09-09T14:38:08;24.63;;;10.68;;
73172;SDS011;61388;54.962;73.394;2022-09-09T14:40:35;24.67;;;10.48;;
73172;SDS011;61388;54.962;73.394;2022-09-09T14:43:02;25.08;;;11.13;;
73172;SDS011;61388;54.962;73.394;2022-09-09T14:45:28;27.00;;;11.63;;
73172;SDS011;61388;54.962;73.394;2022-09-09T14:47:54;24.40;;;10.55;;
73172;SDS011;61388;54.962;73.394;2022-09-09T14:50:30;23.02;;;11.75;;
73172;SDS011;61388;54.962;73.394;2022-09-09T14:53:07;25.23;;;11.70;;
73172;SDS011;61388;54.962;73.394;2022-09-09T14:55:42;29.35;;;11.52;;
73172;SDS011;61388;54.962;73.394;2022-09-09T14:58:08;26.07;;;11.30;;
73172;SDS011;61388;54.962;73.394;2022-09-09T15:00:39;29.98;;;11.68;;
73172;SDS011;61388;54.962;73.394;2022-09-09T15:03:05;25.42;;;11.95;;
73172;SDS011;61388;54.962;73.394;2022-09-09T15:05:31;32.47;;;12.35;;
73172;SDS011;61388;54.962;73.394;2022-09-09T15:07:57;37.83;;;11.87;;
73172;SDS011;61388;54.962;73.394;2022-09-09T15:10:24;29.13;;;11.40;;
73172;SDS011;61388;54.962;73.394;2022-09-09T15:12:50;31.83;;;12.98;;
73172;SDS011;61388;54.962;73.394;2022-09-09T15:15:20;26.38;;;16.65;;
73172;SDS011;61388;54.962;73.394;2022-09-09T15:17:47;37.23;;;15.83;;
73172;SDS011;61388;54.962;73.394;2022-09-09T15:20:18;30.60;;;17.10;;
73172;SDS011;61388;54.962;73.394;2022-09-09T15:22:51;37.08;;;17.75;;
73172;SDS011;61388;54.962;73.394;2022-09-09T15:25:23;30.75;;;14.85;;
73172;SDS011;61388;54.962;73.394;2022-09-09T15:27:54;32.70;;;14.68;;
73172;SDS011;61388;54.962;73.394;2022-09-09T15:30:21;29.60;;;14.83;;
73172;SDS011;61388;54.962;73.394;2022-09-09T15:32:47;26.73;;;13.00;;
73172;SDS011;61388;54.962;73.394;2022-09-09T15:35:13;24.90;;;12.98;;
73172;SDS011;61388;54.962;73.394;2022-09-09T15:37:40;25.70;;;14.07;;
73172;SDS011;61388;54.962;73.394;2022-09-09T15:40:06;29.47;;;13.27;;
73172;SDS011;61388;54.962;73.394;2022-09-09T15:42:32;30.63;;;14.32;;
73172;SDS011;61388;54.962;73.394;2022-09-09T15:45:08;30.58;;;13.18;;
73172;SDS011;61388;54.962;73.394;2022-09-09T15:47:44;24.00;;;11.93;;
73172;SDS011;61388;54.962;73.394;2022-09-09T15:50:12;25.60;;;11.77;;
73172;SDS011;61388;54.962;73.394;2022-09-09T15:52:38;24.23;;;13.20;;
73172;SDS011;61388;54.962;73.394;2022-09-09T15:55:04;31.00;;;12.60;;
73172;SDS011;61388;54.962;73.394;2022-09-09T15:57:30;24.95;;;12.05;;
73172;SDS011;61388;54.962;73.394;2022-09-09T16:00:06;28.20;;;20.50;;
73172;SDS011;61388;54.962;73.394;2022-09-09T16:02:32;26.40;;;13.50;;
73172;SDS011;61388;54.962;73.394;2022-09-09T16:04:59;25.88;;;12.20;;
73172;SDS011;61388;54.962;73.394;2022-09-09T16:07:26;29.92;;;12.32;;
73172;SDS011;61388;54.962;73.394;2022-09-09T16:09:52;30.20;;;13.60;;
73172;SDS011;61388;54.962;73.394;2022-09-09T16:12:19;23.90;;;14.00;;
73172;SDS011;61388;54.962;73.394;2022-09-09T16:14:45;21.52;;;13.05;;
73172;SDS011;61388;54.962;73.394;2022-09-09T16:17:11;33.22;;;12.75;;
73172;SDS011;61388;54.962;73.394;2022-09-09T16:19:37;32.72;;;13.43;;
73172;SDS011;61388;54.962;73.394;2022-09-09T16:22:03;30.50;;;12.40;;
73172;SDS011;61388;54.962;73.394;2022-09-09T16:24:35;29.70;;;13.43;;
73172;SDS011;61388;54.962;73.394;2022-09-09T16:27:01;29.75;;;12.90;;
73172;SDS011;61388;54.962;73.394;2022-09-09T16:29:27;30.95;;;12.70;;
73172;SDS011;61388;54.962;73.394;2022-09-09T16:32:03;33.58;;;14.43;;
73172;SDS011;61388;54.962;73.394;2022-09-09T16:34:29;24.93;;;14.60;;
73172;SDS011;61388;54.962;73.394;2022-09-09T16:36:56;31.63;;;13.95;;
73172;SDS011;61388;54.962;73.394;2022-09-09T16:39:29;23.67;;;12.38;;
73172;SDS011;61388;54.962;73.394;2022-09-09T16:41:55;32.92;;;14.77;;
73172;SDS011;61388;54.962;73.394;2022-09-09T16:44:27;37.45;;;15.25;;
73172;SDS011;61388;54.962;73.394;2022-09-09T16:47:04;45.17;;;19.40;;
73172;SDS011;61388;54.962;73.394;2022-09-09T16:49:29;43.72;;;16.88;;
73172;SDS011;61388;54.962;73.394;2022-09-09T16:51:57;35.40;;;17.23;;
73172;SDS011;61388;54.962;73.394;2022-09-09T16:54:33;39.80;;;20.08;;
73172;SDS011;61388;54.962;73.394;2022-09-09T16:57:04;43.60;;;23.40;;
73172;SDS011;61388;54.962;73.394;2022-09-09T16:59:30;47.47;;;22.03;;
73172;SDS011;61388;54.962;73.394;2022-09-09T17:01:58;50.95;;;25.02;;
73172;SDS011;61388;54.962;73.394;2022-09-09T17:04:25;64.43;;;47.60;;
73172;SDS011;61388;54.962;73.394;2022-09-09T17:06:52;54.08;;;31.88;;
73172;SDS011;61388;54.962;73.394;2022-09-09T17:09:24;55.73;;;32.70;;
73172;SDS011;61388;54.962;73.394;2022-09-09T17:12:04;62.38;;;37.47;;
73172;SDS011;61388;54.962;73.394;2022-09-09T17:14:30;63.95;;;37.80;;
73172;SDS011;61388;54.962;73.394;2022-09-09T17:16:56;55.85;;;34.35;;
73172;SDS011;61388;54.962;73.394;2022-09-09T17:19:23;63.58;;;34.55;;
73172;SDS011;61388;54.962;73.394;2022-09-09T17:21:49;79.00;;;62.10;;
73172;SDS011;61388;54.962;73.394;2022-09-09T17:24:20;74.40;;;62.40;;
73172;SDS011;61388;54.962;73.394;2022-09-09T17:26:52;76.80;;;66.72;;
73172;SDS011;61388;54.962;73.394;2022-09-09T17:29:28;78.82;;;69.97;;
73172;SDS011;61388;54.962;73.394;2022-09-09T17:31:59;68.20;;;41.97;;
73172;SDS011;61388;54.962;73.394;2022-09-09T17:34:25;61.97;;;31.85;;
73172;SDS011;61388;54.962;73.394;2022-09-09T17:36:51;74.90;;;39.15;;
73172;SDS011;61388;54.962;73.394;2022-09-09T17:39:17;73.90;;;65.53;;
73172;SDS011;61388;54.962;73.394;2022-09-09T17:41:43;76.43;;;64.67;;
73172;SDS011;61388;54.962;73.394;2022-09-09T17:44:17;91.18;;;76.95;;
73172;SDS011;61388;54.962;73.394;2022-09-09T17:46:53;108.25;;;97.85;;
73172;SDS011;61388;54.962;73.394;2022-09-09T17:49:25;112.60;;;101.35;;
73172;SDS011;61388;54.962;73.394;2022-09-09T17:51:56;93.03;;;78.45;;
73172;SDS011;61388;54.962;73.394;2022-09-09T17:54:22;95.20;;;67.83;;
73172;SDS011;61388;54.962;73.394;2022-09-09T17:56:48;88.90;;;53.92;;
73172;SDS011;61388;54.962;73.394;2022-09-09T17:59:15;84.68;;;47.40;;
73172;SDS011;61388;54.962;73.394;2022-09-09T18:01:44;92.72;;;46.65;;
73172;SDS011;61388;54.962;73.394;2022-09-09T18:04:16;115.32;;;95.10;;
73172;SDS011;61388;54.962;73.394;2022-09-09T18:06:46;89.50;;;57.77;;
73172;SDS011;61388;54.962;73.394;2022-09-09T18:09:23;105.25;;;82.15;;
73172;SDS011;61388;54.962;73.394;2022-09-09T18:11:55;95.32;;;72.25;;
73172;SDS011;61388;54.962;73.394;2022-09-09T18:14:23;86.80;;;56.90;;
73172;SDS011;61388;54.962;73.394;2022-09-09T18:16:49;77.90;;;54.05;;
73172;SDS011;61388;54.962;73.394;2022-09-09T18:19:17;83.07;;;46.27;;
73172;SDS011;61388;54.962;73.394;2022-09-09T18:21:49;143.75;;;100.65;;
73172;SDS011;61388;54.962;73.394;2022-09-09T18:24:19;178.05;;;162.43;;
73172;SDS011;61388;54.962;73.394;2022-09-09T18:26:46;69.50;;;40.13;;
73172;SDS011;61388;54.962;73.394;2022-09-09T18:29:14;94.55;;;53.30;;
73172;SDS011;61388;54.962;73.394;2022-09-09T18:31:51;188.77;;;171.33;;
73172;SDS011;61388;54.962;73.394;2022-09-09T18:34:27;186.52;;;169.15;;
73172;SDS011;61388;54.962;73.394;2022-09-09T18:36:59;161.27;;;147.07;;
73172;SDS011;61388;54.962;73.394;2022-09-09T18:39:26;104.93;;;93.65;;
73172;SDS011;61388;54.962;73.394;2022-09-09T18:41:53;172.15;;;156.68;;
73172;SDS011;61388;54.962;73.394;2022-09-09T18:44:21;184.60;;;167.37;;
73172;SDS011;61388;54.962;73.394;2022-09-09T18:46:48;180.80;;;162.93;;
73172;SDS011;61388;54.962;73.394;2022-09-09T18:49:20;146.90;;;132.88;;
73172;SDS011;61388;54.962;73.394;2022-09-09T18:51:47;141.05;;;127.30;;
73172;SDS011;61388;54.962;73.394;2022-09-09T18:54:20;142.10;;;129.10;;
73172;SDS011;61388;54.962;73.394;2022-09-09T18:56:51;148.93;;;133.27;;
73172;SDS011;61388;54.962;73.394;2022-09-09T18:59:23;171.85;;;153.35;;
73172;SDS011;61388;54.962;73.394;2022-09-09T19:01:53;187.45;;;165.23;;
73172;SDS011;61388;54.962;73.394;2022-09-09T19:04:19;161.73;;;143.50;;
73172;SDS011;61388;54.962;73.394;2022-09-09T19:06:47;339.15;;;236.60;;
73172;SDS011;61388;54.962;73.394;2022-09-09T19:09:19;435.60;;;289.20;;
73172;SDS011;61388;54.962;73.394;2022-09-09T19:11:45;296.58;;;196.88;;
73172;SDS011;61388;54.962;73.394;2022-09-09T19:14:17;605.63;;;430.15;;
73172;SDS011;61388;54.962;73.394;2022-09-09T19:16:53;487.05;;;294.00;;
73172;SDS011;61388;54.962;73.394;2022-09-09T19:19:22;120.78;;;61.13;;
73172;SDS011;61388;54.962;73.394;2022-09-09T19:21:53;90.10;;;46.97;;
73172;SDS011;61388;54.962;73.394;2022-09-09T19:24:26;190.35;;;138.05;;
73172;SDS011;61388;54.962;73.394;2022-09-09T19:26:59;1091.10;;;657.20;;
73172;SDS011;61388;54.962;73.394;2022-09-09T19:29:27;129.02;;;69.68;;
73172;SDS011;61388;54.962;73.394;2022-09-09T19:31:54;192.05;;;95.45;;
73172;SDS011;61388;54.962;73.394;2022-09-09T19:34:20;1257.63;;;706.97;;
73172;SDS011;61388;54.962;73.394;2022-09-09T19:36:46;1652.53;;;863.95;;
73172;SDS011;61388;54.962;73.394;2022-09-09T19:39:22;163.43;;;85.30;;
73172;SDS011;61388;54.962;73.394;2022-09-09T19:41:48;1665.15;;;755.97;;
73172;SDS011;61388;54.962;73.394;2022-09-09T19:44:23;1999.90;;;852.53;;
73172;SDS011;61388;54.962;73.394;2022-09-09T19:46:59;1999.90;;;873.72;;
73172;SDS011;61388;54.962;73.394;2022-09-09T19:49:35;1999.90;;;986.67;;
73172;SDS011;61388;54.962;73.394;2022-09-09T19:52:09;1999.90;;;748.05;;
73172;SDS011;61388;54.962;73.394;2022-09-09T19:54:40;196.90;;;78.20;;
73172;SDS011;61388;54.962;73.394;2022-09-09T19:57:06;1999.90;;;936.37;;
73172;SDS011;61388;54.962;73.394;2022-09-09T19:59:32;251.75;;;100.90;;
73172;SDS011;61388;54.962;73.394;2022-09-09T20:01:58;1368.20;;;647.50;;
73172;SDS011;61388;54.962;73.394;2022-09-09T20:04:24;1887.03;;;812.78;;
73172;SDS011;61388;54.962;73.394;2022-09-09T20:06:51;499.77;;;212.43;;
73172;SDS011;61388;54.962;73.394;2022-09-09T20:09:17;764.27;;;345.57;;
73172;SDS011;61388;54.962;73.394;2022-09-09T20:11:48;635.97;;;280.15;;
73172;SDS011;61388;54.962;73.394;2022-09-09T20:14:20;465.40;;;197.02;;
73172;SDS011;61388;54.962;73.394;2022-09-09T20:16:46;588.42;;;251.90;;
73172;SDS011;61388;54.962;73.394;2022-09-09T20:19:13;85.25;;;35.08;;
73172;SDS011;61388;54.962;73.394;2022-09-09T20:21:43;248.23;;;91.13;;
73172;SDS011;61388;54.962;73.394;2022-09-09T20:27:04;514.75;;;205.63;;
73172;SDS011;61388;54.962;73.394;2022-09-09T20:29:41;332.35;;;114.18;;
73172;SDS011;61388;54.962;73.394;2022-09-09T20:32:07;495.42;;;198.77;;
73172;SDS011;61388;54.962;73.394;2022-09-09T20:34:33;237.50;;;83.38;;
73172;SDS011;61388;54.962;73.394;2022-09-09T20:36:59;352.95;;;125.47;;
73172;SDS011;61388;54.962;73.394;2022-09-09T20:39:27;118.93;;;43.88;;
73172;SDS011;61388;54.962;73.394;2022-09-09T20:41:53;65.40;;;28.45;;
73172;SDS011;61388;54.962;73.394;2022-09-09T20:44:20;65.67;;;26.87;;
73172;SDS011;61388;54.962;73.394;2022-09-09T20:46:49;55.33;;;23.77;;
73172;SDS011;61388;54.962;73.394;2022-09-09T20:49:17;93.38;;;36.83;;
73172;SDS011;61388;54.962;73.394;2022-09-09T20:51:53;56.53;;;25.85;;
73172;SDS011;61388;54.962;73.394;2022-09-09T20:54:30;199.27;;;68.13;;
73172;SDS011;61388;54.962;73.394;2022-09-09T20:57:00;152.37;;;52.90;;
73172;SDS011;61388;54.962;73.394;2022-09-09T20:59:28;102.05;;;39.50;;
73172;SDS011;61388;54.962;73.394;2022-09-09T21:01:55;127.65;;;45.20;;
73172;SDS011;61388;54.962;73.394;2022-09-09T21:04:21;140.23;;;47.72;;
73172;SDS011;61388;54.962;73.394;2022-09-09T21:06:49;92.35;;;36.65;;
73172;SDS011;61388;54.962;73.394;2022-09-09T21:09:15;82.10;;;30.80;;
73172;SDS011;61388;54.962;73.394;2022-09-09T21:11:47;44.72;;;20.20;;
73172;SDS011;61388;54.962;73.394;2022-09-09T21:14:13;82.43;;;32.45;;
73172;SDS011;61388;54.962;73.394;2022-09-09T21:16:40;43.45;;;18.55;;
73172;SDS011;61388;54.962;73.394;2022-09-09T21:19:16;43.93;;;18.90;;
73172;SDS011;61388;54.962;73.394;2022-09-09T21:21:45;60.17;;;25.42;;
73172;SDS011;61388;54.962;73.394;2022-09-09T21:24:12;71.93;;;28.38;;
73172;SDS011;61388;54.962;73.394;2022-09-09T21:26:44;59.15;;;26.15;;
73172;SDS011;61388;54.962;73.394;2022-09-09T21:29:15;58.70;;;24.27;;
73172;SDS011;61388;54.962;73.394;2022-09-09T21:31:41;39.83;;;17.93;;
73172;SDS011;61388;54.962;73.394;2022-09-09T21:34:12;44.75;;;18.85;;
73172;SDS011;61388;54.962;73.394;2022-09-09T21:36:44;31.48;;;16.23;;
73172;SDS011;61388;54.962;73.394;2022-09-09T21:39:20;40.45;;;15.60;;
73172;SDS011;61388;54.962;73.394;2022-09-09T21:41:46;32.40;;;14.50;;
73172;SDS011;61388;54.962;73.394;2022-09-09T21:44:12;32.70;;;15.17;;
73172;SDS011;61388;54.962;73.394;2022-09-09T21:46:39;28.30;;;13.95;;
73172;SDS011;61388;54.962;73.394;2022-09-09T21:49:08;35.65;;;15.23;;
73172;SDS011;61388;54.962;73.394;2022-09-09T21:51:34;27.88;;;14.13;;
73172;SDS011;61388;54.962;73.394;2022-09-09T21:54:00;33.22;;;15.45;;
73172;SDS011;61388;54.962;73.394;2022-09-09T21:56:26;29.30;;;13.63;;
73172;SDS011;61388;54.962;73.394;2022-09-09T21:58:57;33.60;;;13.73;;
73172;SDS011;61388;54.962;73.394;2022-09-09T22:01:34;29.15;;;13.63;;
73172;SDS011;61388;54.962;73.394;2022-09-09T22:04:04;28.98;;;14.35;;
73172;SDS011;61388;54.962;73.394;2022-09-09T22:06:40;33.55;;;15.13;;
73172;SDS011;61388;54.962;73.394;2022-09-09T22:09:06;31.47;;;14.93;;
73172;SDS011;61388;54.962;73.394;2022-09-09T22:11:32;36.13;;;14.23;;
73172;SDS011;61388;54.962;73.394;2022-09-09T22:14:04;30.55;;;14.32;;
73172;SDS011;61388;54.962;73.394;2022-09-09T22:16:30;31.75;;;14.82;;
73172;SDS011;61388;54.962;73.394;2022-09-09T22:19:01;35.47;;;15.03;;
73172;SDS011;61388;54.962;73.394;2022-09-09T22:21:28;27.20;;;14.43;;
73172;SDS011;61388;54.962;73.394;2022-09-09T22:23:55;32.33;;;15.27;;
73172;SDS011;61388;54.962;73.394;2022-09-09T22:26:22;30.83;;;14.68;;
73172;SDS011;61388;54.962;73.394;2022-09-09T22:28:53;29.10;;;13.80;;
73172;SDS011;61388;54.962;73.394;2022-09-09T22:31:21;31.13;;;15.03;;
73172;SDS011;61388;54.962;73.394;2022-09-09T22:33:48;28.42;;;13.93;;
73172;SDS011;61388;54.962;73.394;2022-09-09T22:36:14;28.48;;;13.48;;
73172;SDS011;61388;54.962;73.394;2022-09-09T22:38:49;31.27;;;13.50;;
73172;SDS011;61388;54.962;73.394;2022-09-09T22:41:21;30.25;;;13.57;;
73172;SDS011;61388;54.962;73.394;2022-09-09T22:43:53;30.80;;;13.77;;
73172;SDS011;61388;54.962;73.394;2022-09-09T22:46:24;31.50;;;13.70;;
73172;SDS011;61388;54.962;73.394;2022-09-09T22:49:00;25.35;;;12.93;;
73172;SDS011;61388;54.962;73.394;2022-09-09T22:51:37;26.33;;;12.77;;
73172;SDS011;61388;54.962;73.394;2022-09-09T22:54:03;24.70;;;13.00;;
73172;SDS011;61388;54.962;73.394;2022-09-09T22:56:29;28.55;;;12.68;;
73172;SDS011;61388;54.962;73.394;2022-09-09T22:58:56;31.17;;;13.48;;
73172;SDS011;61388;54.962;73.394;2022-09-09T23:01:22;29.63;;;14.07;;
73172;SDS011;61388;54.962;73.394;2022-09-09T23:03:49;29.10;;;14.02;;
73172;SDS011;61388;54.962;73.394;2022-09-09T23:06:25;27.10;;;12.77;;
73172;SDS011;61388;54.962;73.394;2022-09-09T23:08:58;28.85;;;13.05;;
73172;SDS011;61388;54.962;73.394;2022-09-09T23:11:30;25.88;;;12.45;;
73172;SDS011;61388;54.962;73.394;2022-09-09T23:13:57;28.90;;;13.32;;
73172;SDS011;61388;54.962;73.394;2022-09-09T23:16:36;29.35;;;13.13;;
73172;SDS011;61388;54.962;73.394;2022-09-09T23:19:04;23.77;;;12.10;;
73172;SDS011;61388;54.962;73.394;2022-09-09T23:21:40;26.58;;;11.18;;
73172;SDS011;61388;54.962;73.394;2022-09-09T23:24:16;26.70;;;11.30;;
73172;SDS011;61388;54.962;73.394;2022-09-09T23:26:43;21.38;;;11.45;;
73172;SDS011;61388;54.962;73.394;2022-09-09T23:29:10;22.85;;;10.68;;